Skip Navigation Links Skip Navigation Links

Current Weather

Central Park, New York

For information only: do not use for flight planning or navigation.
Latest weather
Observation time Thursday, February 22, 2018 8:51 PM EST
Local time Thursday, February 22, 2018 9:35 PM EST
Flight conditions Marginal Visual Meteorological Conditions
Winds
Wind direction East-Northeast (70°)
Wind speed 8 mph
Visibility 10 mi.
Sky condition
Ceiling 1,400 ft. overcast
Cloud layer overcast 1,400 ft.
Temperature 38°F
Dewpoint 33°F
Altimeter 30.67 in.Hg
Derived measurements
Relative humidity 82%
Wind chill 32°F
Density altitude -2022 ft.
Sea-level pressure 30.65 in.Hg
Remarks
Fully automated report.
METAR KNYC 230151Z AUTO 07007KT 10SM OVC014 03/01 A3067 RMK A02 SLP378 T00330006

Settings

Location code

InnerDrive.Weather 4.0.6615.0 Release CLR 4.0.30319.42000
Copyright ©2018 Inner Drive Technology. All rights reserved. Portions Copyright ©1986-2018 David Braverman.

Find weather

Site navigation


Skip Navigation Links

Place info

Page info

PayPal - The safer, easier way to pay online!

Return home.

Copyright ©2018 Inner Drive Technology. Purveyors of fine, hand-crafted computer software. Page printed 2018-02-23T02:35:21 UTC.